Time;durP1;ratioP1;P1;durP2;ratioP2;P2;SDS_P1;SDS_P2;PMS_P1;PMS_P2;Temp;Humidity;BMP_temperature;BMP_pressure;BME280_temperature;BME280_humidity;BME280_pressure;Samples;Min_cycle;Max_cycle;Signal;HPM_P1;HPM_P2
2022/10/08 00:00:50;;;;;;;5.57;1.23;;;;;;;-143.85;100.00;70650.75;4957412;29;20027;-91
2022/10/08 00:03:18;;;;;;;1.77;1.27;;;;;;;-143.85;100.00;70650.75;4940049;29;20055;-92
2022/10/08 00:05:53;;;;;;;1.95;0.90;;;;;;;-143.85;100.00;70650.75;4940370;29;20062;-91
2022/10/08 00:08:18;;;;;;;0.73;0.73;;;;;;;-143.85;100.00;70650.75;4940002;29;20571;-91
2022/10/08 00:11:00;;;;;;;1.40;1.05;;;;;;;-143.85;100.00;70650.75;4956903;29;20111;-91
2022/10/08 00:13:28;;;;;;;1.98;1.48;;;;;;;-143.85;100.00;70650.75;4940074;29;20039;-91
2022/10/08 00:15:54;;;;;;;1.08;0.98;;;;;;;-143.85;100.00;70650.75;4940256;29;20034;-92
2022/10/08 00:18:19;;;;;;;1.85;1.67;;;;;;;-143.85;100.00;70650.75;4956988;28;20031;-92
2022/10/08 00:20:47;;;;;;;2.60;1.30;;;;;;;-143.85;100.00;70650.75;4956894;29;20058;-91
2022/10/08 00:23:13;;;;;;;1.37;1.13;;;;;;;-143.85;100.00;70650.75;4939885;29;20031;-91
2022/10/08 00:25:41;;;;;;;2.22;1.67;;;;;;;-143.85;100.00;70650.75;4939844;29;20278;-91
2022/10/08 00:28:07;;;;;;;0.85;0.85;;;;;;;-143.85;100.00;70650.75;4939954;29;20023;-91
2022/10/08 00:30:38;;;;;;;1.45;0.90;;;;;;;-143.85;100.00;70650.75;4939819;29;20028;-90
2022/10/08 00:33:04;;;;;;;2.35;1.75;;;;;;;-143.85;100.00;70650.75;4939872;29;20087;-90
2022/10/08 00:35:35;;;;;;;9.23;1.55;;;;;;;-143.85;100.00;70650.75;4956638;29;20032;-92
2022/10/08 00:38:01;;;;;;;3.00;1.25;;;;;;;-143.85;100.00;70650.75;4939669;29;20126;-91
2022/10/08 00:40:27;;;;;;;1.70;1.10;;;;;;;-143.85;100.00;70650.75;4936333;29;20031;-91
2022/10/08 00:42:53;;;;;;;1.73;1.45;;;;;;;-143.85;100.00;70650.75;4946455;29;20035;-91
2022/10/08 00:45:18;;;;;;;2.72;1.40;;;;;;;-143.85;100.00;70650.75;4955718;28;20114;-91
2022/10/08 00:47:47;;;;;;;1.02;1.02;;;;;;;-143.85;100.00;70650.75;4939435;29;20031;-93
2022/10/08 00:50:23;;;;;;;1.50;1.27;;;;;;;-143.85;100.00;70650.75;4939731;29;20463;-91
2022/10/08 00:53:06;;;;;;;1.98;1.45;;;;;;;-143.85;100.00;70650.75;4939593;29;20073;-94
2022/10/08 00:55:33;;;;;;;2.15;1.10;;;;;;;-143.85;100.00;70650.75;4939328;29;20031;-92
2022/10/08 00:58:06;;;;;;;1.58;1.10;;;;;;;-143.85;100.00;70650.75;4939209;29;20118;-91
2022/10/08 01:00:32;;;;;;;1.92;1.40;;;;;;;-143.85;100.00;70650.75;4939282;29;20114;-93
2022/10/08 01:02:58;;;;;;;1.55;1.38;;;;;;;-143.85;100.00;70650.75;4939216;29;20058;-93
2022/10/08 01:05:50;;;;;;;1.00;0.63;;;;;;;-143.85;100.00;70650.75;4939206;29;20031;-92
2022/10/08 01:08:15;;;;;;;1.27;1.20;;;;;;;-143.85;100.00;70650.75;4939008;29;20027;-92
2022/10/08 01:10:49;;;;;;;1.42;1.10;;;;;;;-143.85;100.00;70650.75;4939036;29;20043;-90
2022/10/08 01:13:40;;;;;;;1.20;0.90;;;;;;;-143.85;100.00;70650.75;4938952;29;20031;-92
2022/10/08 01:16:15;;;;;;;1.73;1.25;;;;;;;-143.85;100.00;70650.75;4938911;29;20027;-91
2022/10/08 01:18:56;;;;;;;3.30;1.35;;;;;;;-143.85;100.00;70650.75;4949898;29;20066;-92
2022/10/08 01:21:42;;;;;;;2.42;1.63;;;;;;;-143.85;100.00;70650.75;4938921;29;20047;-91
2022/10/08 01:24:19;;;;;;;1.05;0.98;;;;;;;-143.85;100.00;70650.75;4938713;29;20038;-93
2022/10/08 01:26:47;;;;;;;0.75;0.75;;;;;;;-143.85;100.00;70650.75;4935316;28;20551;-90
2022/10/08 01:29:36;;;;;;;1.55;1.30;;;;;;;-143.85;100.00;70650.75;4938890;29;20027;-87
2022/10/08 01:32:25;;;;;;;4.03;1.83;;;;;;;-143.85;100.00;70650.75;4938694;29;20031;-91
2022/10/08 01:35:02;;;;;;;4.45;1.25;;;;;;;-143.85;100.00;70650.75;4938369;29;20023;-90
2022/10/08 01:37:36;;;;;;;1.05;1.02;;;;;;;-143.85;100.00;70650.75;4920124;29;20038;-91
2022/10/08 01:40:06;;;;;;;0.85;0.82;;;;;;;-143.85;100.00;70650.75;4948922;29;20027;-91
2022/10/08 01:42:34;;;;;;;1.10;1.05;;;;;;;-143.85;100.00;70650.75;4942631;29;20542;-90
2022/10/08 01:45:02;;;;;;;;;;;;;;;-143.85;100.00;70650.75;4955687;29;20035;-90
2022/10/08 01:47:29;;;;;;;8.27;2.90;;;;;;;-143.85;100.00;70650.75;4955330;29;19910;-90
2022/10/08 01:50:11;;;;;;;6.90;1.53;;;;;;;-143.85;100.00;70650.75;4938006;29;20055;-89
2022/10/08 01:52:42;;;;;;;3.75;1.08;;;;;;;-143.85;100.00;70650.75;4955322;29;20047;-93
2022/10/08 01:55:15;;;;;;;3.45;1.15;;;;;;;-143.85;100.00;70650.75;4937973;29;20031;-92
2022/10/08 01:57:44;;;;;;;1.50;1.40;;;;;;;-143.85;100.00;70650.75;4955308;29;20101;-92
2022/10/08 02:00:12;;;;;;;3.53;1.63;;;;;;;-143.85;100.00;70650.75;4938218;29;20035;-93
2022/10/08 02:02:38;;;;;;;;;;;;;;;-143.85;100.00;70650.75;4955382;28;20031;-89
2022/10/08 02:05:04;;;;;;;3.47;1.00;;;;;;;-143.85;100.00;70650.75;4955139;29;20445;-91
2022/10/08 02:07:34;;;;;;;1.48;1.13;;;;;;;-143.85;100.00;70650.75;4938229;29;20031;-91
2022/10/08 02:10:06;;;;;;;1.30;1.00;;;;;;;-143.85;100.00;70650.75;4937984;29;20448;-92
2022/10/08 02:12:32;;;;;;;2.00;1.08;;;;;;;-143.85;100.00;70650.75;4954491;29;20031;-90
2022/10/08 02:14:58;;;;;;;1.67;1.23;;;;;;;-143.85;100.00;70650.75;4954932;29;20035;-92
2022/10/08 02:17:49;;;;;;;1.08;1.02;;;;;;;-143.85;100.00;70650.75;4938018;29;20019;-92
2022/10/08 02:20:20;;;;;;;1.75;1.63;;;;;;;-143.85;100.00;70650.75;4954186;29;20055;-93
2022/10/08 02:22:58;;;;;;;1.73;1.27;;;;;;;-143.85;100.00;70650.75;4938607;29;20027;-92
2022/10/08 02:25:35;;;;;;;1.95;1.30;;;;;;;-143.85;100.00;70650.75;4937430;29;20035;-93
2022/10/08 02:28:13;;;;;;;1.83;1.20;;;;;;;-143.85;100.00;70650.75;4955437;29;20036;-93
2022/10/08 02:30:52;;;;;;;1.00;0.97;;;;;;;-143.85;100.00;70650.75;4938553;29;20066;-91
2022/10/08 02:33:26;;;;;;;3.88;1.15;;;;;;;-143.85;100.00;70650.75;4949904;29;20274;-92
2022/10/08 02:35:56;;;;;;;1.17;1.02;;;;;;;-143.85;100.00;70650.75;4943181;28;20030;-91
2022/10/08 02:38:51;;;;;;;0.85;0.70;;;;;;;-143.85;100.00;70650.75;4954800;29;20034;-94
2022/10/08 02:41:20;;;;;;;1.92;1.70;;;;;;;-143.85;100.00;70650.75;4934635;29;20071;-93
2022/10/08 02:43:48;;;;;;;1.20;1.10;;;;;;;-143.85;100.00;70650.75;4937570;29;20035;-92
2022/10/08 02:46:19;;;;;;;;;;;;;;;-143.85;100.00;70650.75;4938100;29;20038;-91
2022/10/08 02:48:51;;;;;;;2.85;1.30;;;;;;;-143.85;100.00;70650.75;4937624;29;20013;-91
2022/10/08 02:51:18;;;;;;;1.33;1.10;;;;;;;-143.85;100.00;70650.75;4937437;29;20051;-90
2022/10/08 02:53:46;;;;;;;4.82;1.63;;;;;;;-143.85;100.00;70650.75;4937593;29;20055;-93
2022/10/08 02:56:23;;;;;;;;;;;;;;;-143.85;100.00;70650.75;4937722;29;20126;-92
2022/10/08 02:58:48;;;;;;;2.00;1.23;;;;;;;-143.85;100.00;70650.75;4946280;29;19942;-91
2022/10/08 03:01:25;;;;;;;3.20;1.52;;;;;;;-143.85;100.00;70650.75;4954575;29;20027;-92
2022/10/08 03:03:59;;;;;;;5.95;2.05;;;;;;;-143.85;100.00;70650.75;4938165;29;20155;-92
2022/10/08 03:06:27;;;;;;;3.08;1.25;;;;;;;-143.85;100.00;70650.75;4937114;28;20019;-90
2022/10/08 03:08:57;;;;;;;1.40;1.13;;;;;;;-143.85;100.00;70650.75;4957431;29;20054;-89
2022/10/08 03:11:22;;;;;;;4.20;1.42;;;;;;;-143.85;100.00;70650.75;4941097;28;20031;-90
2022/10/08 03:13:50;;;;;;;5.07;2.92;;;;;;;-143.85;100.00;70650.75;4957998;29;20110;-92
2022/10/08 03:16:19;;;;;;;;;;;;;;;-143.85;100.00;70650.75;4940928;29;20023;-93
2022/10/08 03:18:45;;;;;;;7.40;2.58;;;;;;;-143.85;100.00;70650.75;4940952;29;19990;-93
2022/10/08 03:21:13;;;;;;;3.13;1.33;;;;;;;-143.85;100.00;70650.75;4940902;29;20032;-92
2022/10/08 03:23:39;;;;;;;5.18;1.20;;;;;;;-143.85;100.00;70650.75;4958046;29;20110;-91
2022/10/08 03:26:04;;;;;;;1.55;1.08;;;;;;;-143.85;100.00;70650.75;4941088;29;20557;-91
2022/10/08 03:28:30;;;;;;;1.10;0.93;;;;;;;-143.85;100.00;70650.75;4940964;29;20118;-93
2022/10/08 03:30:55;;;;;;;4.20;2.30;;;;;;;-143.85;100.00;70650.75;4940766;29;20479;-93
2022/10/08 03:33:21;;;;;;;1.80;1.52;;;;;;;-143.85;100.00;70650.75;4944237;29;20055;-92
2022/10/08 03:35:46;;;;;;;2.45;1.08;;;;;;;-143.85;100.00;70650.75;4941086;29;20062;-93
2022/10/08 03:38:16;;;;;;;3.88;1.95;;;;;;;-143.85;100.00;70650.75;4940695;29;20028;-93
2022/10/08 03:40:43;;;;;;;1.90;1.67;;;;;;;-143.85;100.00;70650.75;4940383;29;20031;-93
2022/10/08 03:43:08;;;;;;;1.83;1.00;;;;;;;-143.85;100.00;70650.75;4941084;29;20046;-94
2022/10/08 03:45:34;;;;;;;3.03;1.75;;;;;;;-143.85;100.00;70650.75;4957590;29;20039;-94
2022/10/08 03:47:59;;;;;;;3.05;1.60;;;;;;;-143.85;100.00;70650.75;4957491;29;20498;-93
2022/10/08 03:50:25;;;;;;;2.85;1.98;;;;;;;-143.85;100.00;70650.75;4940209;29;20047;-93
2022/10/08 03:52:50;;;;;;;2.38;1.65;;;;;;;-143.85;100.00;70650.75;4940388;29;20051;-94
2022/10/08 03:55:16;;;;;;;3.03;1.60;;;;;;;-143.85;100.00;70650.75;4957077;29;20027;-93
2022/10/08 03:57:41;;;;;;;6.65;3.05;;;;;;;-143.85;100.00;70650.75;4951879;28;20494;-93
2022/10/08 04:00:08;;;;;;;5.97;2.67;;;;;;;-143.85;100.00;70650.75;4957252;29;20031;-92
2022/10/08 04:02:33;;;;;;;7.38;2.95;;;;;;;-143.85;100.00;70650.75;4957264;29;20063;-92
2022/10/08 04:04:58;;;;;;;15.43;5.03;;;;;;;-143.85;100.00;70650.75;4957311;29;20035;-92
2022/10/08 04:07:24;;;;;;;14.00;4.40;;;;;;;-143.85;100.00;70650.75;4940044;29;20028;-93
2022/10/08 04:09:49;;;;;;;6.72;2.95;;;;;;;-143.85;100.00;70650.75;4939993;29;20035;-94
2022/10/08 04:12:15;;;;;;;7.25;2.35;;;;;;;-143.85;100.00;70650.75;4939926;29;20035;-93
2022/10/08 04:14:40;;;;;;;12.25;2.03;;;;;;;-143.85;100.00;70650.75;4939927;29;20034;-91
2022/10/08 04:17:05;;;;;;;9.15;1.95;;;;;;;-143.85;100.00;70650.75;4939984;29;20031;-92
2022/10/08 04:19:31;;;;;;;1.20;1.10;;;;;;;-143.85;100.00;70650.75;4927278;29;20036;-92
2022/10/08 04:21:56;;;;;;;2.15;0.85;;;;;;;-143.85;100.00;70650.75;4939075;29;20027;-92
2022/10/08 04:24:22;;;;;;;9.50;1.83;;;;;;;-143.85;100.00;70650.75;4956678;29;20035;-92
2022/10/08 04:26:47;;;;;;;4.97;1.90;;;;;;;-143.85;100.00;70650.75;4939703;29;20023;-92
2022/10/08 04:29:12;;;;;;;3.47;1.35;;;;;;;-143.85;100.00;70650.75;4956650;29;20038;-92
2022/10/08 04:31:39;;;;;;;2.55;1.23;;;;;;;-143.85;100.00;70650.75;4939710;29;20062;-92
2022/10/08 04:34:05;;;;;;;2.55;1.77;;;;;;;-143.85;100.00;70650.75;4939260;28;20136;-91
2022/10/08 04:36:30;;;;;;;3.03;1.77;;;;;;;-143.85;100.00;70650.75;4939065;29;20059;-92
2022/10/08 04:38:56;;;;;;;2.35;1.85;;;;;;;-143.85;100.00;70650.75;4939299;29;20061;-91
2022/10/08 04:41:24;;;;;;;9.35;1.88;;;;;;;-143.85;100.00;70650.75;4956482;29;20030;-92
2022/10/08 04:43:50;;;;;;;10.95;1.20;;;;;;;-143.85;100.00;70650.75;4960415;28;20042;-91
2022/10/08 04:46:18;;;;;;;0.90;0.88;;;;;;;-143.85;100.00;70650.75;4956305;28;20097;-92
2022/10/08 04:48:50;;;;;;;3.15;1.35;;;;;;;-143.85;100.00;70650.75;4939296;29;20073;-90
2022/10/08 04:51:17;;;;;;;4.57;1.08;;;;;;;-143.85;100.00;70650.75;4956682;29;20198;-92
2022/10/08 04:53:43;;;;;;;1.27;1.17;;;;;;;-143.85;100.00;70650.75;4939366;29;20023;-92
2022/10/08 04:56:15;;;;;;;2.65;1.45;;;;;;;-143.85;100.00;70650.75;4939001;29;20113;-92
2022/10/08 04:58:42;;;;;;;2.15;1.70;;;;;;;-143.85;100.00;70650.75;4939222;29;20050;-93
2022/10/08 05:01:10;;;;;;;1.42;1.33;;;;;;;-143.85;100.00;70650.75;4938880;29;20027;-92
2022/10/08 05:03:37;;;;;;;4.88;1.73;;;;;;;-143.85;100.00;70650.75;4939736;29;20031;-92
2022/10/08 05:06:03;;;;;;;7.47;1.60;;;;;;;-143.85;100.00;70650.75;4955888;28;20027;-91
2022/10/08 05:08:28;;;;;;;2.33;1.98;;;;;;;-143.85;100.00;70650.75;4938825;29;20118;-91
2022/10/08 05:10:54;;;;;;;11.25;2.72;;;;;;;-143.85;100.00;70650.75;4938716;29;20491;-91
2022/10/08 05:13:19;;;;;;;4.55;1.98;;;;;;;-143.85;100.00;70650.75;4938673;29;20035;-91
2022/10/08 05:15:45;;;;;;;4.43;2.42;;;;;;;-143.85;100.00;70650.75;4955716;29;20033;-92
2022/10/08 05:18:10;;;;;;;4.60;2.55;;;;;;;-143.85;100.00;70650.75;4938431;29;20089;-92
2022/10/08 05:20:36;;;;;;;8.68;3.50;;;;;;;-143.85;100.00;70650.75;4956148;29;20075;-92
2022/10/08 05:23:01;;;;;;;6.50;3.65;;;;;;;-143.85;100.00;70650.75;4925441;29;20054;-89
2022/10/08 05:25:30;;;;;;;9.00;3.67;;;;;;;-143.85;100.00;70650.75;4925369;29;20043;-89
2022/10/08 05:27:56;;;;;;;15.35;5.20;;;;;;;-143.85;100.00;70650.75;4924661;29;20020;-88
2022/10/08 05:30:22;;;;;;;13.10;3.45;;;;;;;-143.85;100.00;70650.75;4954912;28;20038;-88
2022/10/08 05:32:47;;;;;;;12.60;3.38;;;;;;;-143.85;100.00;70650.75;4938390;29;20038;-87
2022/10/08 05:35:12;;;;;;;9.73;3.33;;;;;;;-143.85;100.00;70650.75;4933879;29;20036;-88
2022/10/08 05:37:38;;;;;;;11.10;3.40;;;;;;;-143.85;100.00;70650.75;4929255;29;20031;-88
2022/10/08 05:40:04;;;;;;;1.40;1.02;;;;;;;-143.85;100.00;70650.75;4937899;29;20388;-89
2022/10/08 05:42:29;;;;;;;1.15;0.85;;;;;;;-143.85;100.00;70650.75;4930576;29;20023;-87
2022/10/08 05:44:55;;;;;;;12.48;1.10;;;;;;;-143.85;100.00;70650.75;4932613;29;20396;-87
2022/10/08 05:47:20;;;;;;;2.72;0.80;;;;;;;-143.85;100.00;70650.75;4934920;29;20034;-86
2022/10/08 05:49:46;;;;;;;1.73;0.80;;;;;;;-143.85;100.00;70650.75;4945691;29;20051;-86
2022/10/08 05:52:11;;;;;;;0.80;0.77;;;;;;;-143.85;100.00;70650.75;4930716;29;20032;-86
2022/10/08 05:54:36;;;;;;;2.17;1.20;;;;;;;-143.85;100.00;70650.75;4938081;29;20031;-85
2022/10/08 05:57:02;;;;;;;3.03;0.95;;;;;;;-143.85;100.00;70650.75;4936785;29;20031;-86
2022/10/08 05:59:27;;;;;;;1.17;0.80;;;;;;;-143.85;100.00;70650.75;4938123;29;20143;-87
2022/10/08 06:01:53;;;;;;;1.13;0.88;;;;;;;-143.85;100.00;70650.75;4937322;29;20054;-89
2022/10/08 06:04:18;;;;;;;1.50;0.80;;;;;;;-143.85;100.00;70650.75;4937749;29;20031;-88
2022/10/08 06:06:44;;;;;;;1.77;1.13;;;;;;;-143.85;100.00;70650.75;4937997;29;20459;-84
2022/10/08 06:09:13;;;;;;;1.63;1.23;;;;;;;-143.85;100.00;70650.75;4954524;29;20031;-86
2022/10/08 06:11:39;;;;;;;3.25;0.95;;;;;;;-143.85;100.00;70650.75;4937415;29;20043;-87
2022/10/08 06:14:06;;;;;;;3.65;0.90;;;;;;;-143.85;100.00;70650.75;4937218;29;20031;-87
2022/10/08 06:16:32;;;;;;;6.15;1.40;;;;;;;-143.85;100.00;70650.75;4938027;29;20046;-87
2022/10/08 06:18:58;;;;;;;1.70;0.75;;;;;;;-143.85;100.00;70650.75;4937559;29;20023;-88
2022/10/08 06:21:25;;;;;;;2.30;0.88;;;;;;;-143.85;100.00;70650.75;4937520;29;20065;-88
2022/10/08 06:23:53;;;;;;;1.00;0.90;;;;;;;-143.85;100.00;70650.75;4953996;29;20039;-88
2022/10/08 06:26:20;;;;;;;;;;;;;;;-143.85;100.00;70650.75;4937824;29;20027;-91
2022/10/08 06:28:47;;;;;;;1.10;0.88;;;;;;;-143.85;100.00;70650.75;4937573;29;19911;-88
2022/10/08 06:31:14;;;;;;;1.27;1.15;;;;;;;-143.85;100.00;70650.75;4954719;29;20032;-87
2022/10/08 06:33:39;;;;;;;1.20;0.70;;;;;;;-143.85;100.00;70650.75;4937348;29;20031;-86
2022/10/08 06:36:16;;;;;;;0.95;0.80;;;;;;;-143.85;100.00;70650.75;4936092;29;20036;-88
2022/10/08 06:38:41;;;;;;;3.92;0.93;;;;;;;-143.85;100.00;70650.75;4937644;29;20035;-86
2022/10/08 06:41:07;;;;;;;2.00;0.90;;;;;;;-143.85;100.00;70650.75;4932525;29;20026;-85
2022/10/08 06:43:33;;;;;;;1.20;1.00;;;;;;;-143.85;100.00;70650.75;4928949;29;20039;-85
2022/10/08 06:46:03;;;;;;;5.75;1.50;;;;;;;-143.85;100.00;70650.75;4951015;29;20023;-85
2022/10/08 06:48:29;;;;;;;3.00;1.92;;;;;;;-143.85;100.00;70650.75;4935229;29;20034;-84
2022/10/08 06:50:59;;;;;;;3.50;1.38;;;;;;;-143.85;100.00;70650.75;4927402;29;20155;-84
2022/10/08 06:53:25;;;;;;;1.20;1.10;;;;;;;-143.85;100.00;70650.75;4940748;29;20042;-84
2022/10/08 06:56:06;;;;;;;1.73;1.20;;;;;;;-143.85;100.00;70650.75;4940740;29;20034;-84
2022/10/08 06:58:34;;;;;;;2.53;1.02;;;;;;;-143.85;100.00;70650.75;4941116;29;20042;-84
2022/10/08 07:01:05;;;;;;;1.50;1.35;;;;;;;-143.85;100.00;70650.75;4957864;29;20031;-83
2022/10/08 07:03:30;;;;;;;1.50;0.75;;;;;;;-143.85;100.00;70650.75;4940745;29;20112;-83
2022/10/08 07:06:02;;;;;;;6.63;0.90;;;;;;;-143.85;100.00;70650.75;4940484;29;20035;-82
2022/10/08 07:08:28;;;;;;;0.80;0.68;;;;;;;-143.85;100.00;70650.75;4957700;29;20029;-83
2022/10/08 07:10:54;;;;;;;1.40;1.30;;;;;;;-143.85;100.00;70650.75;4940302;29;20039;-82
2022/10/08 07:13:20;;;;;;;1.67;1.25;;;;;;;-143.85;100.00;70650.75;4940336;29;20023;-81
2022/10/08 07:15:45;;;;;;;1.25;0.80;;;;;;;-143.85;100.00;70650.75;4940123;29;20111;-82
2022/10/08 07:18:11;;;;;;;1.20;0.90;;;;;;;-143.85;100.00;70650.75;4934248;29;20051;-81
2022/10/08 07:20:38;;;;;;;2.50;1.85;;;;;;;-143.85;100.00;70650.75;4921030;29;20087;-82
2022/10/08 07:23:05;;;;;;;1.15;1.00;;;;;;;-143.85;100.00;70650.75;4938764;29;20467;-82
2022/10/08 07:25:30;;;;;;;1.88;1.00;;;;;;;-143.85;100.00;70650.75;4930051;29;20035;-82
2022/10/08 07:27:55;;;;;;;1.17;1.08;;;;;;;-143.85;100.00;70650.75;4936888;29;20115;-82
2022/10/08 07:30:21;;;;;;;0.93;0.88;;;;;;;-143.85;100.00;70650.75;4939967;29;20471;-82
2022/10/08 07:32:46;;;;;;;2.30;0.90;;;;;;;-143.85;100.00;70650.75;4939533;28;20090;-83
2022/10/08 07:35:12;;;;;;;1.98;1.10;;;;;;;-143.85;100.00;70650.75;4956936;28;20039;-81
2022/10/08 07:37:41;;;;;;;0.90;0.90;;;;;;;-143.85;100.00;70650.75;4940200;29;20031;-81
2022/10/08 07:40:07;;;;;;;1.80;0.57;;;;;;;-143.85;100.00;70650.75;4956965;29;20034;-82
2022/10/08 07:42:32;;;;;;;1.20;1.10;;;;;;;-143.85;100.00;70650.75;4939554;29;20114;-81
2022/10/08 07:44:57;;;;;;;0.90;0.85;;;;;;;-143.85;100.00;70650.75;4939711;29;20466;-81
2022/10/08 07:47:23;;;;;;;1.52;1.33;;;;;;;-143.85;100.00;70650.75;4939909;29;20028;-83
2022/10/08 07:49:48;;;;;;;2.15;0.73;;;;;;;-143.85;100.00;70650.75;4939371;29;20055;-82
2022/10/08 07:52:14;;;;;;;2.00;1.42;;;;;;;-143.85;100.00;70650.75;4939928;29;20023;-81
2022/10/08 07:54:39;;;;;;;1.40;1.00;;;;;;;-143.85;100.00;70650.75;4938837;29;20027;-81
2022/10/08 07:57:05;;;;;;;1.58;1.05;;;;;;;-143.85;100.00;70650.75;4939289;29;20071;-83
2022/10/08 07:59:30;;;;;;;1.98;1.08;;;;;;;-143.85;100.00;70650.75;4939359;29;20036;-82
2022/10/08 08:01:55;;;;;;;2.15;1.50;;;;;;;-143.85;100.00;70650.75;4939571;29;20114;-83
2022/10/08 08:04:24;;;;;;;2.85;1.23;;;;;;;-143.85;100.00;70650.75;4939161;29;20035;-82
2022/10/08 08:06:51;;;;;;;2.90;1.45;;;;;;;-143.85;100.00;70650.75;4950204;29;20082;-82
2022/10/08 08:09:17;;;;;;;6.07;0.98;;;;;;;-143.85;100.00;70650.75;4929308;29;20031;-81
2022/10/08 08:11:44;;;;;;;2.80;1.58;;;;;;;-143.85;100.00;70650.75;4927072;29;20110;-83
2022/10/08 08:14:11;;;;;;;1.83;1.20;;;;;;;-143.85;100.00;70650.75;4955946;29;20031;-82
2022/10/08 08:16:37;;;;;;;2.17;0.70;;;;;;;-143.85;100.00;70650.75;4956071;28;20031;-83
2022/10/08 08:19:02;;;;;;;3.45;0.85;;;;;;;-143.85;100.00;70650.75;4956456;29;20058;-83
2022/10/08 08:21:34;;;;;;;1.90;1.27;;;;;;;-143.85;100.00;70650.75;4939151;29;20034;-83
2022/10/08 08:24:05;;;;;;;1.27;0.90;;;;;;;-143.85;100.00;70650.75;4956318;29;20043;-82
2022/10/08 08:26:34;;;;;;;0.93;0.90;;;;;;;-143.85;100.00;70650.75;4956225;29;20053;-82
2022/10/08 08:29:06;;;;;;;2.33;1.10;;;;;;;-143.85;100.00;70650.75;4939013;29;20031;-82
2022/10/08 08:31:34;;;;;;;1.13;0.98;;;;;;;-143.85;100.00;70650.75;4931886;29;20114;-82
2022/10/08 08:34:04;;;;;;;1.20;0.88;;;;;;;-143.85;100.00;70650.75;4938894;29;20038;-82
2022/10/08 08:36:33;;;;;;;2.30;1.52;;;;;;;-143.85;100.00;70650.75;4955974;29;20032;-85
2022/10/08 08:38:59;;;;;;;2.40;1.05;;;;;;;-143.85;100.00;70650.75;4939146;29;20054;-83
2022/10/08 08:41:31;;;;;;;1.05;0.90;;;;;;;-143.85;100.00;70650.75;4956100;29;20148;-82
2022/10/08 08:44:09;;;;;;;1.38;1.13;;;;;;;-143.85;100.00;70650.75;4929364;29;20042;-82
2022/10/08 08:46:39;;;;;;;;;;;;;;;-143.85;100.00;70650.75;4926039;29;20028;-82
2022/10/08 08:49:30;;;;;;;0.70;0.70;;;;;;;-143.85;100.00;70650.75;4929157;29;19920;-82
2022/10/08 08:51:58;;;;;;;1.17;0.90;;;;;;;-143.85;100.00;70650.75;4937671;29;20101;-82
2022/10/08 08:54:23;;;;;;;3.50;1.13;;;;;;;-143.85;100.00;70650.75;4938399;29;20027;-83
2022/10/08 08:56:51;;;;;;;5.55;1.42;;;;;;;-143.85;100.00;70650.75;4938302;29;20062;-82
2022/10/08 08:59:34;;;;;;;1.85;1.02;;;;;;;-143.85;100.00;70650.75;4928961;29;20043;-81
2022/10/08 09:02:04;;;;;;;1.02;0.93;;;;;;;-143.85;100.00;70650.75;4929217;29;20050;-82
2022/10/08 09:04:41;;;;;;;2.78;1.30;;;;;;;-143.85;100.00;70650.75;4938660;29;20034;-82
2022/10/08 09:07:13;;;;;;;3.97;1.80;;;;;;;-143.85;100.00;70650.75;4938083;29;20031;-81
2022/10/08 09:09:54;;;;;;;1.25;1.08;;;;;;;-143.85;100.00;70650.75;4938014;29;20033;-81
2022/10/08 09:12:22;;;;;;;3.78;2.08;;;;;;;-143.85;100.00;70650.75;4938298;29;20151;-82
2022/10/08 09:14:54;;;;;;;2.80;1.05;;;;;;;-143.85;100.00;70650.75;4938133;29;20027;-82
2022/10/08 09:17:28;;;;;;;1.10;1.00;;;;;;;-143.85;100.00;70650.75;4936861;29;20035;-82
2022/10/08 09:19:54;;;;;;;1.98;1.60;;;;;;;-143.85;100.00;70650.75;4938005;29;20058;-81
2022/10/08 09:22:29;;;;;;;4.85;1.30;;;;;;;-143.85;100.00;70650.75;4937766;29;20059;-81
2022/10/08 09:25:02;;;;;;;1.63;1.45;;;;;;;-143.85;100.00;70650.75;4938507;29;20030;-81
2022/10/08 09:27:50;;;;;;;2.75;1.02;;;;;;;-143.85;100.00;70650.75;4954948;29;20062;-81
2022/10/08 09:30:38;;;;;;;2.92;1.75;;;;;;;-143.85;100.00;70650.75;4937967;29;20035;-81
2022/10/08 09:33:15;;;;;;;3.75;0.90;;;;;;;-143.85;100.00;70650.75;4943118;29;20039;-81
2022/10/08 09:35:48;;;;;;;3.53;1.02;;;;;;;-143.85;100.00;70650.75;4937689;29;20023;-82
2022/10/08 09:38:21;;;;;;;1.25;1.15;;;;;;;-143.85;100.00;70650.75;4937602;29;20550;-82
2022/10/08 09:41:07;;;;;;;2.42;1.65;;;;;;;-143.85;100.00;70650.75;4954857;29;20106;-81
2022/10/08 09:43:34;;;;;;;1.15;1.10;;;;;;;-143.85;100.00;70650.75;4937726;29;20044;-82
2022/10/08 09:46:09;;;;;;;2.60;0.95;;;;;;;-143.85;100.00;70650.75;4937607;29;20027;-86
2022/10/08 09:48:35;;;;;;;2.10;1.55;;;;;;;-143.85;100.00;70650.75;4955296;29;20038;-83
2022/10/08 09:51:15;;;;;;;1.52;1.00;;;;;;;-143.85;100.00;70650.75;4937591;29;20117;-82
2022/10/08 09:53:49;;;;;;;1.05;0.80;;;;;;;-143.85;100.00;70650.75;4937986;29;20566;-82
2022/10/08 09:56:26;;;;;;;3.10;1.40;;;;;;;-143.85;100.00;70650.75;4937316;29;20388;-82
2022/10/08 09:59:01;;;;;;;0.73;0.70;;;;;;;-143.85;100.00;70650.75;4937653;29;20058;-81
2022/10/08 10:01:30;;;;;;;4.43;1.10;;;;;;;-143.85;100.00;70650.75;4937303;29;20035;-82
2022/10/08 10:04:05;;;;;;;2.28;0.90;;;;;;;-143.85;100.00;70650.75;4937483;29;20105;-83
2022/10/08 10:06:32;;;;;;;1.42;0.93;;;;;;;-143.85;100.00;70650.75;4921938;29;20126;-84
2022/10/08 10:09:07;;;;;;;0.83;0.83;;;;;;;-143.85;100.00;70650.75;4937419;29;20031;-83
2022/10/08 10:11:42;;;;;;;0.95;0.95;;;;;;;-143.85;100.00;70650.75;4937051;28;20114;-84
2022/10/08 10:14:23;;;;;;;1.02;0.90;;;;;;;-143.85;100.00;70650.75;4937500;29;20127;-84
2022/10/08 10:16:59;;;;;;;1.10;1.10;;;;;;;-143.85;100.00;70650.75;4939417;28;20114;-84
2022/10/08 10:19:31;;;;;;;1.30;1.05;;;;;;;-143.85;100.00;70650.75;4960148;28;20518;-84
2022/10/08 10:22:31;;;;;;;2.45;1.17;;;;;;;-143.85;100.00;70650.75;4943517;29;20034;-82
2022/10/08 10:25:07;;;;;;;9.38;1.50;;;;;;;-143.85;100.00;70650.75;4933431;29;20047;-81
2022/10/08 10:27:42;;;;;;;1.02;1.00;;;;;;;-143.85;100.00;70650.75;4943821;29;20030;-82
2022/10/08 10:30:17;;;;;;;1.85;1.20;;;;;;;-143.85;100.00;70650.75;4938411;29;20024;-83
2022/10/08 10:32:52;;;;;;;1.15;0.80;;;;;;;-143.85;100.00;70650.75;4932258;29;20505;-83
2022/10/08 10:35:25;;;;;;;2.25;0.93;;;;;;;-143.85;100.00;70650.75;4943645;28;20117;-83
2022/10/08 10:37:57;;;;;;;3.13;1.65;;;;;;;-143.85;100.00;70650.75;4943845;29;20091;-82
2022/10/08 10:40:30;;;;;;;1.23;1.02;;;;;;;-143.85;100.00;70650.75;4944150;29;20424;-86
2022/10/08 10:43:31;;;;;;;1.80;1.10;;;;;;;-143.85;100.00;70650.75;4943589;29;20117;-86
2022/10/08 10:46:22;;;;;;;0.70;0.70;;;;;;;-143.85;100.00;70650.75;4940883;29;20122;-86
2022/10/08 10:48:48;;;;;;;1.77;1.33;;;;;;;-143.85;100.00;70650.75;4943790;29;20039;-85
2022/10/08 10:51:23;;;;;;;1.25;1.15;;;;;;;-143.85;100.00;70650.75;4943629;29;20423;-86
2022/10/08 10:54:10;;;;;;;0.82;0.80;;;;;;;-143.85;100.00;70650.75;4960827;28;20102;-84
2022/10/08 10:56:46;;;;;;;1.87;1.03;;;;;;;-143.85;100.00;70650.75;4931062;29;20031;-85
2022/10/08 10:59:21;;;;;;;1.25;0.73;;;;;;;-143.85;100.00;70650.75;4960634;28;20495;-86
2022/10/08 11:01:56;;;;;;;2.03;1.10;;;;;;;-143.85;100.00;70650.75;4931820;29;20031;-86
2022/10/08 11:04:37;;;;;;;5.60;1.23;;;;;;;-143.85;100.00;70650.75;4943658;29;20130;-86
2022/10/08 11:07:19;;;;;;;0.60;0.60;;;;;;;-143.85;100.00;70650.75;4949743;29;20083;-86
2022/10/08 11:10:12;;;;;;;0.75;0.65;;;;;;;-143.85;100.00;70650.75;4943638;29;20118;-85
2022/10/08 11:12:51;;;;;;;1.02;0.82;;;;;;;-143.85;100.00;70650.75;4944303;29;20027;-86
2022/10/08 11:15:34;;;;;;;2.35;1.20;;;;;;;-143.85;100.00;70650.75;4960814;28;20054;-85
2022/10/08 11:18:37;;;;;;;5.55;1.20;;;;;;;-143.85;100.00;70650.75;4944145;29;20035;-89
2022/10/08 11:21:11;;;;;;;0.90;0.90;;;;;;;-143.85;100.00;70650.75;4943789;29;20054;-86
2022/10/08 11:23:36;;;;;;;1.20;1.10;;;;;;;-143.85;100.00;70650.75;4943388;29;20031;-86